sensor_id;sensor_type;location;lat;lon;timestamp;temperature;humidity
60860;DHT22;46694;54.382;9.708;2023-07-24T00:00:37;17.20;99.90
60860;DHT22;46694;54.382;9.708;2023-07-24T00:03:18;17.20;99.90
60860;DHT22;46694;54.382;9.708;2023-07-24T00:05:58;17.20;99.90
60860;DHT22;46694;54.382;9.708;2023-07-24T00:08:41;17.10;99.90
60860;DHT22;46694;54.382;9.708;2023-07-24T00:11:20;17.20;99.90
60860;DHT22;46694;54.382;9.708;2023-07-24T00:14:00;17.20;99.90
60860;DHT22;46694;54.382;9.708;2023-07-24T00:16:40;17.10;99.90
60860;DHT22;46694;54.382;9.708;2023-07-24T00:19:19;17.10;99.90
60860;DHT22;46694;54.382;9.708;2023-07-24T00:21:59;17.10;99.90
60860;DHT22;46694;54.382;9.708;2023-07-24T00:24:38;17.10;99.90
60860;DHT22;46694;54.382;9.708;2023-07-24T00:27:18;17.10;99.90
60860;DHT22;46694;54.382;9.708;2023-07-24T00:29:58;17.10;99.90
60860;DHT22;46694;54.382;9.708;2023-07-24T00:32:37;17.10;99.90
60860;DHT22;46694;54.382;9.708;2023-07-24T00:35:17;17.10;99.90
60860;DHT22;46694;54.382;9.708;2023-07-24T00:37:56;17.10;99.90
60860;DHT22;46694;54.382;9.708;2023-07-24T00:40:36;17.10;99.90
60860;DHT22;46694;54.382;9.708;2023-07-24T00:43:16;17.10;99.90
60860;DHT22;46694;54.382;9.708;2023-07-24T00:45:56;17.10;99.90
60860;DHT22;46694;54.382;9.708;2023-07-24T00:48:35;17.10;99.90
60860;DHT22;46694;54.382;9.708;2023-07-24T00:51:15;17.10;99.90
60860;DHT22;46694;54.382;9.708;2023-07-24T00:53:56;17.00;99.90
60860;DHT22;46694;54.382;9.708;2023-07-24T00:56:37;17.00;99.90
60860;DHT22;46694;54.382;9.708;2023-07-24T00:59:16;17.00;99.90
60860;DHT22;46694;54.382;9.708;2023-07-24T01:01:56;17.00;99.90
60860;DHT22;46694;54.382;9.708;2023-07-24T01:04:36;17.00;99.90
60860;DHT22;46694;54.382;9.708;2023-07-24T01:07:17;17.00;99.90
60860;DHT22;46694;54.382;9.708;2023-07-24T01:09:56;17.00;99.90
60860;DHT22;46694;54.382;9.708;2023-07-24T01:12:51;17.00;99.90
60860;DHT22;46694;54.382;9.708;2023-07-24T01:18:39;17.00;99.90
60860;DHT22;46694;54.382;9.708;2023-07-24T01:21:27;17.00;99.90
60860;DHT22;46694;54.382;9.708;2023-07-24T01:27:08;17.00;99.90
60860;DHT22;46694;54.382;9.708;2023-07-24T01:29:48;16.90;99.90
60860;DHT22;46694;54.382;9.708;2023-07-24T01:32:27;17.00;99.90
60860;DHT22;46694;54.382;9.708;2023-07-24T01:35:07;17.00;99.90
60860;DHT22;46694;54.382;9.708;2023-07-24T01:37:47;16.90;99.90
60860;DHT22;46694;54.382;9.708;2023-07-24T01:40:27;17.00;99.90
60860;DHT22;46694;54.382;9.708;2023-07-24T01:43:07;17.00;99.90
60860;DHT22;46694;54.382;9.708;2023-07-24T01:45:46;17.00;99.90
60860;DHT22;46694;54.382;9.708;2023-07-24T01:48:26;17.10;99.90
60860;DHT22;46694;54.382;9.708;2023-07-24T01:51:05;17.10;99.90
60860;DHT22;46694;54.382;9.708;2023-07-24T01:53:45;17.10;99.90
60860;DHT22;46694;54.382;9.708;2023-07-24T01:56:24;17.10;99.90
60860;DHT22;46694;54.382;9.708;2023-07-24T01:59:04;17.20;99.90
60860;DHT22;46694;54.382;9.708;2023-07-24T02:01:44;17.20;99.90
60860;DHT22;46694;54.382;9.708;2023-07-24T02:04:24;17.20;99.90
60860;DHT22;46694;54.382;9.708;2023-07-24T02:07:03;17.30;99.90
60860;DHT22;46694;54.382;9.708;2023-07-24T02:09:43;17.30;99.90
60860;DHT22;46694;54.382;9.708;2023-07-24T02:12:23;17.30;99.90
60860;DHT22;46694;54.382;9.708;2023-07-24T02:15:03;17.30;99.90
60860;DHT22;46694;54.382;9.708;2023-07-24T02:17:42;17.30;99.90
60860;DHT22;46694;54.382;9.708;2023-07-24T02:20:22;17.30;99.90
60860;DHT22;46694;54.382;9.708;2023-07-24T02:23:02;17.30;99.90
60860;DHT22;46694;54.382;9.708;2023-07-24T02:25:41;17.40;99.90
60860;DHT22;46694;54.382;9.708;2023-07-24T02:28:22;17.40;99.90
60860;DHT22;46694;54.382;9.708;2023-07-24T02:31:01;17.40;99.90
60860;DHT22;46694;54.382;9.708;2023-07-24T02:33:41;17.40;99.90
60860;DHT22;46694;54.382;9.708;2023-07-24T02:36:21;17.40;99.90
60860;DHT22;46694;54.382;9.708;2023-07-24T02:39:00;17.40;99.90
60860;DHT22;46694;54.382;9.708;2023-07-24T02:41:40;17.40;99.90
60860;DHT22;46694;54.382;9.708;2023-07-24T02:44:19;17.40;99.90
60860;DHT22;46694;54.382;9.708;2023-07-24T02:47:02;17.50;99.90
60860;DHT22;46694;54.382;9.708;2023-07-24T02:49:42;17.50;99.90
60860;DHT22;46694;54.382;9.708;2023-07-24T02:52:22;17.50;99.90
60860;DHT22;46694;54.382;9.708;2023-07-24T02:55:02;17.50;99.90
60860;DHT22;46694;54.382;9.708;2023-07-24T02:57:41;17.60;99.90
60860;DHT22;46694;54.382;9.708;2023-07-24T03:00:21;17.50;99.90
60860;DHT22;46694;54.382;9.708;2023-07-24T03:03:00;17.60;99.90
60860;DHT22;46694;54.382;9.708;2023-07-24T03:05:40;17.60;99.90
60860;DHT22;46694;54.382;9.708;2023-07-24T03:08:20;17.60;99.90
60860;DHT22;46694;54.382;9.708;2023-07-24T03:11:09;17.60;99.90
60860;DHT22;46694;54.382;9.708;2023-07-24T03:13:48;17.60;99.90
60860;DHT22;46694;54.382;9.708;2023-07-24T03:16:28;17.60;99.90
60860;DHT22;46694;54.382;9.708;2023-07-24T03:19:07;17.60;99.90
60860;DHT22;46694;54.382;9.708;2023-07-24T03:21:47;17.60;99.90
60860;DHT22;46694;54.382;9.708;2023-07-24T03:24:26;17.60;99.90
60860;DHT22;46694;54.382;9.708;2023-07-24T03:27:06;17.60;99.90
60860;DHT22;46694;54.382;9.708;2023-07-24T03:29:46;17.60;99.90
60860;DHT22;46694;54.382;9.708;2023-07-24T03:32:26;17.60;99.90
60860;DHT22;46694;54.382;9.708;2023-07-24T03:35:06;17.60;99.90
60860;DHT22;46694;54.382;9.708;2023-07-24T03:37:46;17.60;99.90
60860;DHT22;46694;54.382;9.708;2023-07-24T03:40:26;17.70;99.90
60860;DHT22;46694;54.382;9.708;2023-07-24T03:43:05;17.60;99.90
60860;DHT22;46694;54.382;9.708;2023-07-24T03:45:44;17.70;99.90
60860;DHT22;46694;54.382;9.708;2023-07-24T03:48:24;17.70;99.90
60860;DHT22;46694;54.382;9.708;2023-07-24T03:51:04;17.70;99.90
60860;DHT22;46694;54.382;9.708;2023-07-24T03:53:43;17.70;99.90
60860;DHT22;46694;54.382;9.708;2023-07-24T03:56:23;17.70;99.90
60860;DHT22;46694;54.382;9.708;2023-07-24T03:59:02;17.70;99.90
60860;DHT22;46694;54.382;9.708;2023-07-24T04:01:42;17.70;99.90
60860;DHT22;46694;54.382;9.708;2023-07-24T04:04:22;17.70;99.90
60860;DHT22;46694;54.382;9.708;2023-07-24T04:07:01;17.70;99.90
60860;DHT22;46694;54.382;9.708;2023-07-24T04:09:41;17.70;99.90
60860;DHT22;46694;54.382;9.708;2023-07-24T04:12:21;17.70;99.90
60860;DHT22;46694;54.382;9.708;2023-07-24T04:15:00;17.70;99.90
60860;DHT22;46694;54.382;9.708;2023-07-24T04:17:40;17.70;99.90
60860;DHT22;46694;54.382;9.708;2023-07-24T04:20:20;17.70;99.90
60860;DHT22;46694;54.382;9.708;2023-07-24T04:23:00;17.70;99.90
60860;DHT22;46694;54.382;9.708;2023-07-24T04:25:39;17.70;99.90
60860;DHT22;46694;54.382;9.708;2023-07-24T04:28:19;17.70;99.90
60860;DHT22;46694;54.382;9.708;2023-07-24T04:31:01;17.70;99.90
60860;DHT22;46694;54.382;9.708;2023-07-24T04:33:41;17.70;99.90
60860;DHT22;46694;54.382;9.708;2023-07-24T04:36:21;17.70;99.90
60860;DHT22;46694;54.382;9.708;2023-07-24T04:39:00;17.70;99.90
60860;DHT22;46694;54.382;9.708;2023-07-24T04:41:40;17.70;99.90
60860;DHT22;46694;54.382;9.708;2023-07-24T04:44:19;17.70;99.90
60860;DHT22;46694;54.382;9.708;2023-07-24T04:46:59;17.70;99.90
60860;DHT22;46694;54.382;9.708;2023-07-24T04:49:39;17.70;99.90
60860;DHT22;46694;54.382;9.708;2023-07-24T04:52:18;17.70;99.90
60860;DHT22;46694;54.382;9.708;2023-07-24T04:54:58;17.70;99.90
60860;DHT22;46694;54.382;9.708;2023-07-24T04:57:37;17.70;99.90
60860;DHT22;46694;54.382;9.708;2023-07-24T05:00:17;17.80;99.90
60860;DHT22;46694;54.382;9.708;2023-07-24T05:02:57;17.80;99.90
60860;DHT22;46694;54.382;9.708;2023-07-24T05:05:37;17.70;99.90
60860;DHT22;46694;54.382;9.708;2023-07-24T05:08:17;17.80;99.90
60860;DHT22;46694;54.382;9.708;2023-07-24T05:10:57;17.80;99.90
60860;DHT22;46694;54.382;9.708;2023-07-24T05:13:37;17.90;99.90
60860;DHT22;46694;54.382;9.708;2023-07-24T05:16:17;17.90;99.90
60860;DHT22;46694;54.382;9.708;2023-07-24T05:18:56;17.90;99.90
60860;DHT22;46694;54.382;9.708;2023-07-24T05:21:36;17.90;99.90
60860;DHT22;46694;54.382;9.708;2023-07-24T05:24:16;17.90;99.90
60860;DHT22;46694;54.382;9.708;2023-07-24T05:27:21;17.90;99.90
60860;DHT22;46694;54.382;9.708;2023-07-24T05:30:00;17.90;99.90
60860;DHT22;46694;54.382;9.708;2023-07-24T05:32:40;17.90;99.90
60860;DHT22;46694;54.382;9.708;2023-07-24T05:35:19;17.80;99.90
60860;DHT22;46694;54.382;9.708;2023-07-24T05:37:59;17.80;99.90
60860;DHT22;46694;54.382;9.708;2023-07-24T05:40:39;17.80;99.90
60860;DHT22;46694;54.382;9.708;2023-07-24T05:43:18;17.80;99.90
60860;DHT22;46694;54.382;9.708;2023-07-24T05:45:58;17.80;99.90
60860;DHT22;46694;54.382;9.708;2023-07-24T05:48:37;17.80;99.90
60860;DHT22;46694;54.382;9.708;2023-07-24T05:51:17;17.80;99.90
60860;DHT22;46694;54.382;9.708;2023-07-24T05:53:56;17.80;99.90
60860;DHT22;46694;54.382;9.708;2023-07-24T05:56:36;17.80;99.90
60860;DHT22;46694;54.382;9.708;2023-07-24T05:59:16;17.80;99.90
60860;DHT22;46694;54.382;9.708;2023-07-24T06:01:55;17.80;99.90
60860;DHT22;46694;54.382;9.708;2023-07-24T06:04:35;17.80;99.90
60860;DHT22;46694;54.382;9.708;2023-07-24T06:07:15;17.90;99.90
60860;DHT22;46694;54.382;9.708;2023-07-24T06:09:55;17.90;99.90
60860;DHT22;46694;54.382;9.708;2023-07-24T06:12:34;17.90;99.90
60860;DHT22;46694;54.382;9.708;2023-07-24T06:15:14;17.90;99.90
60860;DHT22;46694;54.382;9.708;2023-07-24T06:17:56;18.00;99.90
60860;DHT22;46694;54.382;9.708;2023-07-24T06:20:36;18.00;99.90
60860;DHT22;46694;54.382;9.708;2023-07-24T06:23:16;17.90;99.90
60860;DHT22;46694;54.382;9.708;2023-07-24T06:25:55;18.00;99.90
60860;DHT22;46694;54.382;9.708;2023-07-24T06:28:35;18.00;99.90
60860;DHT22;46694;54.382;9.708;2023-07-24T06:31:14;18.00;99.90
60860;DHT22;46694;54.382;9.708;2023-07-24T06:33:54;17.90;99.90
60860;DHT22;46694;54.382;9.708;2023-07-24T06:36:34;17.90;99.90
60860;DHT22;46694;54.382;9.708;2023-07-24T06:39:13;17.90;99.90
60860;DHT22;46694;54.382;9.708;2023-07-24T06:41:54;17.90;99.90
60860;DHT22;46694;54.382;9.708;2023-07-24T06:44:34;17.80;99.90
60860;DHT22;46694;54.382;9.708;2023-07-24T06:47:13;17.80;99.90
60860;DHT22;46694;54.382;9.708;2023-07-24T06:49:53;17.80;99.90
60860;DHT22;46694;54.382;9.708;2023-07-24T06:52:32;17.80;99.90
60860;DHT22;46694;54.382;9.708;2023-07-24T06:55:12;17.80;99.90
60860;DHT22;46694;54.382;9.708;2023-07-24T06:57:51;17.70;99.90
60860;DHT22;46694;54.382;9.708;2023-07-24T07:00:31;17.80;99.90
60860;DHT22;46694;54.382;9.708;2023-07-24T07:03:11;17.80;99.90
60860;DHT22;46694;54.382;9.708;2023-07-24T07:06:05;17.80;99.90
60860;DHT22;46694;54.382;9.708;2023-07-24T07:08:45;17.80;99.90
60860;DHT22;46694;54.382;9.708;2023-07-24T07:11:25;17.80;99.90
60860;DHT22;46694;54.382;9.708;2023-07-24T07:14:05;17.80;99.90
60860;DHT22;46694;54.382;9.708;2023-07-24T07:16:48;17.80;99.90
60860;DHT22;46694;54.382;9.708;2023-07-24T07:19:38;17.80;99.90
60860;DHT22;46694;54.382;9.708;2023-07-24T07:22:17;18.00;99.90
60860;DHT22;46694;54.382;9.708;2023-07-24T07:24:56;18.00;99.90
60860;DHT22;46694;54.382;9.708;2023-07-24T07:27:36;18.00;99.90
60860;DHT22;46694;54.382;9.708;2023-07-24T07:30:16;18.00;99.90
60860;DHT22;46694;54.382;9.708;2023-07-24T07:32:55;18.00;99.90
60860;DHT22;46694;54.382;9.708;2023-07-24T07:35:36;18.00;99.90
60860;DHT22;46694;54.382;9.708;2023-07-24T07:38:15;18.00;99.90
60860;DHT22;46694;54.382;9.708;2023-07-24T07:40:55;18.10;99.90
60860;DHT22;46694;54.382;9.708;2023-07-24T07:43:34;18.10;99.90
60860;DHT22;46694;54.382;9.708;2023-07-24T07:46:15;18.10;99.90
60860;DHT22;46694;54.382;9.708;2023-07-24T07:49:11;18.10;99.90
60860;DHT22;46694;54.382;9.708;2023-07-24T07:51:53;18.20;99.90
60860;DHT22;46694;54.382;9.708;2023-07-24T07:54:33;18.10;99.90
60860;DHT22;46694;54.382;9.708;2023-07-24T07:57:12;18.10;99.90
60860;DHT22;46694;54.382;9.708;2023-07-24T07:59:52;18.10;99.90
60860;DHT22;46694;54.382;9.708;2023-07-24T08:02:32;18.10;99.90
60860;DHT22;46694;54.382;9.708;2023-07-24T08:05:13;18.10;99.90
60860;DHT22;46694;54.382;9.708;2023-07-24T08:07:52;18.10;99.90
60860;DHT22;46694;54.382;9.708;2023-07-24T08:10:32;18.10;99.90
60860;DHT22;46694;54.382;9.708;2023-07-24T08:13:12;18.20;99.90
60860;DHT22;46694;54.382;9.708;2023-07-24T08:15:51;18.20;99.90
60860;DHT22;46694;54.382;9.708;2023-07-24T08:18:36;18.30;99.90
60860;DHT22;46694;54.382;9.708;2023-07-24T08:21:15;18.30;99.90
60860;DHT22;46694;54.382;9.708;2023-07-24T08:23:55;18.40;99.90
60860;DHT22;46694;54.382;9.708;2023-07-24T08:26:38;18.30;99.90
60860;DHT22;46694;54.382;9.708;2023-07-24T08:29:17;18.30;99.90
60860;DHT22;46694;54.382;9.708;2023-07-24T08:31:57;18.30;99.90
60860;DHT22;46694;54.382;9.708;2023-07-24T08:34:36;18.30;99.90
60860;DHT22;46694;54.382;9.708;2023-07-24T08:37:16;18.20;99.90
60860;DHT22;46694;54.382;9.708;2023-07-24T08:39:55;18.20;99.90
60860;DHT22;46694;54.382;9.708;2023-07-24T08:42:41;18.20;99.90
60860;DHT22;46694;54.382;9.708;2023-07-24T08:45:23;18.20;99.90
60860;DHT22;46694;54.382;9.708;2023-07-24T08:48:03;18.20;99.90
60860;DHT22;46694;54.382;9.708;2023-07-24T08:50:42;18.10;99.90
60860;DHT22;46694;54.382;9.708;2023-07-24T08:53:25;18.10;99.90
60860;DHT22;46694;54.382;9.708;2023-07-24T08:56:06;18.10;99.90
60860;DHT22;46694;54.382;9.708;2023-07-24T08:58:46;18.10;99.90
60860;DHT22;46694;54.382;9.708;2023-07-24T09:01:25;18.10;99.90
60860;DHT22;46694;54.382;9.708;2023-07-24T09:04:05;18.10;99.90
60860;DHT22;46694;54.382;9.708;2023-07-24T09:06:45;18.10;99.90
60860;DHT22;46694;54.382;9.708;2023-07-24T09:09:29;18.10;99.90
60860;DHT22;46694;54.382;9.708;2023-07-24T09:12:15;18.00;99.90
60860;DHT22;46694;54.382;9.708;2023-07-24T09:15:04;18.00;99.90
60860;DHT22;46694;54.382;9.708;2023-07-24T09:17:52;18.00;99.90
60860;DHT22;46694;54.382;9.708;2023-07-24T09:20:42;18.00;99.90
60860;DHT22;46694;54.382;9.708;2023-07-24T09:23:27;18.10;99.90
60860;DHT22;46694;54.382;9.708;2023-07-24T09:26:09;18.10;99.90
60860;DHT22;46694;54.382;9.708;2023-07-24T09:28:53;18.10;99.90
60860;DHT22;46694;54.382;9.708;2023-07-24T09:31:36;18.20;99.90
60860;DHT22;46694;54.382;9.708;2023-07-24T09:34:17;18.30;99.90
60860;DHT22;46694;54.382;9.708;2023-07-24T09:36:58;18.30;99.90
60860;DHT22;46694;54.382;9.708;2023-07-24T09:39:39;18.40;99.90
60860;DHT22;46694;54.382;9.708;2023-07-24T09:42:26;18.40;99.90
60860;DHT22;46694;54.382;9.708;2023-07-24T09:45:07;18.40;99.90
60860;DHT22;46694;54.382;9.708;2023-07-24T09:47:48;18.50;99.90
60860;DHT22;46694;54.382;9.708;2023-07-24T09:50:27;18.50;99.90
60860;DHT22;46694;54.382;9.708;2023-07-24T09:53:33;18.50;99.90
60860;DHT22;46694;54.382;9.708;2023-07-24T09:56:13;18.50;99.90
60860;DHT22;46694;54.382;9.708;2023-07-24T09:58:53;18.40;99.90
60860;DHT22;46694;54.382;9.708;2023-07-24T10:01:37;18.50;99.90
60860;DHT22;46694;54.382;9.708;2023-07-24T10:04:16;18.50;99.90
60860;DHT22;46694;54.382;9.708;2023-07-24T10:06:56;18.50;99.90
60860;DHT22;46694;54.382;9.708;2023-07-24T10:09:36;18.60;99.90
60860;DHT22;46694;54.382;9.708;2023-07-24T10:12:19;18.90;99.90
60860;DHT22;46694;54.382;9.708;2023-07-24T10:15:00;19.20;99.90
60860;DHT22;46694;54.382;9.708;2023-07-24T10:17:41;19.50;99.90
60860;DHT22;46694;54.382;9.708;2023-07-24T10:20:21;19.80;99.90
60860;DHT22;46694;54.382;9.708;2023-07-24T10:23:03;20.10;99.90
60860;DHT22;46694;54.382;9.708;2023-07-24T10:25:45;20.50;99.90
60860;DHT22;46694;54.382;9.708;2023-07-24T10:28:36;21.10;99.90
60860;DHT22;46694;54.382;9.708;2023-07-24T10:31:24;21.60;99.90
60860;DHT22;46694;54.382;9.708;2023-07-24T10:34:06;21.60;99.90
60860;DHT22;46694;54.382;9.708;2023-07-24T10:36:46;21.60;99.90
60860;DHT22;46694;54.382;9.708;2023-07-24T10:39:26;21.80;99.90
60860;DHT22;46694;54.382;9.708;2023-07-24T10:44:49;22.50;99.90
60860;DHT22;46694;54.382;9.708;2023-07-24T10:47:29;22.80;99.90
60860;DHT22;46694;54.382;9.708;2023-07-24T10:50:09;23.40;99.90
60860;DHT22;46694;54.382;9.708;2023-07-24T10:52:48;23.90;99.90
60860;DHT22;46694;54.382;9.708;2023-07-24T10:55:28;24.30;99.90
60860;DHT22;46694;54.382;9.708;2023-07-24T10:58:08;24.40;99.90
60860;DHT22;46694;54.382;9.708;2023-07-24T11:00:47;24.60;99.90
60860;DHT22;46694;54.382;9.708;2023-07-24T11:03:27;24.50;99.90
60860;DHT22;46694;54.382;9.708;2023-07-24T11:06:20;24.20;99.90
60860;DHT22;46694;54.382;9.708;2023-07-24T11:09:02;24.10;99.90
60860;DHT22;46694;54.382;9.708;2023-07-24T11:11:42;24.30;99.90
60860;DHT22;46694;54.382;9.708;2023-07-24T11:14:21;24.50;99.90
60860;DHT22;46694;54.382;9.708;2023-07-24T11:17:02;24.60;99.90
60860;DHT22;46694;54.382;9.708;2023-07-24T11:19:41;24.50;99.90
60860;DHT22;46694;54.382;9.708;2023-07-24T11:22:22;24.20;99.90
60860;DHT22;46694;54.382;9.708;2023-07-24T11:25:03;23.80;99.90
60860;DHT22;46694;54.382;9.708;2023-07-24T11:27:44;23.30;99.90
60860;DHT22;46694;54.382;9.708;2023-07-24T11:30:23;23.10;99.90
60860;DHT22;46694;54.382;9.708;2023-07-24T11:33:05;23.20;99.90
60860;DHT22;46694;54.382;9.708;2023-07-24T11:35:45;23.50;99.90
60860;DHT22;46694;54.382;9.708;2023-07-24T11:38:25;23.70;99.90
60860;DHT22;46694;54.382;9.708;2023-07-24T11:41:05;23.80;99.90
60860;DHT22;46694;54.382;9.708;2023-07-24T11:43:48;23.80;99.90
60860;DHT22;46694;54.382;9.708;2023-07-24T11:46:29;23.60;99.90
60860;DHT22;46694;54.382;9.708;2023-07-24T11:49:14;23.30;99.90
60860;DHT22;46694;54.382;9.708;2023-07-24T11:52:05;22.80;99.90
60860;DHT22;46694;54.382;9.708;2023-07-24T11:54:56;22.50;99.90
60860;DHT22;46694;54.382;9.708;2023-07-24T11:57:42;22.20;99.90
60860;DHT22;46694;54.382;9.708;2023-07-24T12:00:22;22.10;99.90
60860;DHT22;46694;54.382;9.708;2023-07-24T12:03:02;22.20;99.90
60860;DHT22;46694;54.382;9.708;2023-07-24T12:05:44;22.00;99.90
60860;DHT22;46694;54.382;9.708;2023-07-24T12:08:34;22.00;99.90
60860;DHT22;46694;54.382;9.708;2023-07-24T12:11:17;21.90;99.90
60860;DHT22;46694;54.382;9.708;2023-07-24T12:14:00;21.90;99.90
60860;DHT22;46694;54.382;9.708;2023-07-24T12:16:40;21.90;99.90
60860;DHT22;46694;54.382;9.708;2023-07-24T12:19:19;21.90;99.90
60860;DHT22;46694;54.382;9.708;2023-07-24T12:21:59;22.00;99.90
60860;DHT22;46694;54.382;9.708;2023-07-24T12:24:42;21.90;99.90
60860;DHT22;46694;54.382;9.708;2023-07-24T12:27:22;22.00;99.90
60860;DHT22;46694;54.382;9.708;2023-07-24T12:30:01;22.10;99.90
60860;DHT22;46694;54.382;9.708;2023-07-24T12:32:42;22.20;99.90
60860;DHT22;46694;54.382;9.708;2023-07-24T12:35:21;22.30;99.90
60860;DHT22;46694;54.382;9.708;2023-07-24T12:38:01;22.50;99.90
60860;DHT22;46694;54.382;9.708;2023-07-24T12:40:40;22.70;99.90
60860;DHT22;46694;54.382;9.708;2023-07-24T12:43:20;22.80;99.90
60860;DHT22;46694;54.382;9.708;2023-07-24T12:46:00;22.80;99.90
60860;DHT22;46694;54.382;9.708;2023-07-24T12:48:39;22.90;99.90
60860;DHT22;46694;54.382;9.708;2023-07-24T12:53:59;23.40;99.90
60860;DHT22;46694;54.382;9.708;2023-07-24T12:56:42;23.30;99.90
60860;DHT22;46694;54.382;9.708;2023-07-24T12:59:25;23.10;99.90
60860;DHT22;46694;54.382;9.708;2023-07-24T13:02:04;22.90;99.90
60860;DHT22;46694;54.382;9.708;2023-07-24T13:04:44;22.60;99.90
60860;DHT22;46694;54.382;9.708;2023-07-24T13:07:23;22.60;99.90
60860;DHT22;46694;54.382;9.708;2023-07-24T13:10:03;22.80;99.90
60860;DHT22;46694;54.382;9.708;2023-07-24T13:12:43;23.00;99.90
60860;DHT22;46694;54.382;9.708;2023-07-24T13:15:23;23.20;99.90
60860;DHT22;46694;54.382;9.708;2023-07-24T13:18:03;23.30;99.90
60860;DHT22;46694;54.382;9.708;2023-07-24T13:20:42;23.10;99.90
60860;DHT22;46694;54.382;9.708;2023-07-24T13:23:22;23.10;99.90
60860;DHT22;46694;54.382;9.708;2023-07-24T13:26:02;23.10;99.90
60860;DHT22;46694;54.382;9.708;2023-07-24T13:28:41;23.10;99.90
60860;DHT22;46694;54.382;9.708;2023-07-24T13:31:24;23.00;99.90
60860;DHT22;46694;54.382;9.708;2023-07-24T13:34:04;22.80;99.90
60860;DHT22;46694;54.382;9.708;2023-07-24T13:36:43;22.70;99.90
60860;DHT22;46694;54.382;9.708;2023-07-24T13:39:23;23.00;99.90
60860;DHT22;46694;54.382;9.708;2023-07-24T13:44:45;22.70;99.90
60860;DHT22;46694;54.382;9.708;2023-07-24T13:47:25;22.60;99.90
60860;DHT22;46694;54.382;9.708;2023-07-24T13:50:05;22.50;99.90
60860;DHT22;46694;54.382;9.708;2023-07-24T13:52:45;22.50;99.90
60860;DHT22;46694;54.382;9.708;2023-07-24T13:55:25;22.60;99.90
60860;DHT22;46694;54.382;9.708;2023-07-24T13:58:05;22.70;99.90
60860;DHT22;46694;54.382;9.708;2023-07-24T14:00:44;22.90;99.90
60860;DHT22;46694;54.382;9.708;2023-07-24T14:03:24;22.90;99.90
60860;DHT22;46694;54.382;9.708;2023-07-24T14:06:07;23.00;99.90
60860;DHT22;46694;54.382;9.708;2023-07-24T14:08:47;22.90;99.90
60860;DHT22;46694;54.382;9.708;2023-07-24T14:11:26;22.90;99.90
60860;DHT22;46694;54.382;9.708;2023-07-24T14:14:07;22.90;99.90
60860;DHT22;46694;54.382;9.708;2023-07-24T14:16:48;22.80;99.90
60860;DHT22;46694;54.382;9.708;2023-07-24T14:19:27;22.80;99.90
60860;DHT22;46694;54.382;9.708;2023-07-24T14:22:06;22.70;99.90
60860;DHT22;46694;54.382;9.708;2023-07-24T14:24:46;22.80;99.90
60860;DHT22;46694;54.382;9.708;2023-07-24T14:27:25;22.80;99.90
60860;DHT22;46694;54.382;9.708;2023-07-24T14:30:05;22.80;99.90
60860;DHT22;46694;54.382;9.708;2023-07-24T14:32:47;22.70;99.90
60860;DHT22;46694;54.382;9.708;2023-07-24T14:35:28;22.50;99.90
60860;DHT22;46694;54.382;9.708;2023-07-24T14:38:07;22.40;99.90
60860;DHT22;46694;54.382;9.708;2023-07-24T14:40:46;22.30;99.90
60860;DHT22;46694;54.382;9.708;2023-07-24T14:43:26;22.30;99.90
60860;DHT22;46694;54.382;9.708;2023-07-24T14:46:06;22.20;99.90
60860;DHT22;46694;54.382;9.708;2023-07-24T14:48:45;22.10;99.90
60860;DHT22;46694;54.382;9.708;2023-07-24T14:51:24;22.10;99.90
60860;DHT22;46694;54.382;9.708;2023-07-24T14:54:05;22.00;99.90
60860;DHT22;46694;54.382;9.708;2023-07-24T14:56:45;22.00;99.90
60860;DHT22;46694;54.382;9.708;2023-07-24T14:59:25;21.90;99.90
60860;DHT22;46694;54.382;9.708;2023-07-24T15:02:04;21.90;99.90
60860;DHT22;46694;54.382;9.708;2023-07-24T15:04:44;21.80;99.90
60860;DHT22;46694;54.382;9.708;2023-07-24T15:07:24;21.70;99.90
60860;DHT22;46694;54.382;9.708;2023-07-24T15:10:03;21.80;99.90
60860;DHT22;46694;54.382;9.708;2023-07-24T15:12:43;21.80;99.90
60860;DHT22;46694;54.382;9.708;2023-07-24T15:15:22;21.90;99.90
60860;DHT22;46694;54.382;9.708;2023-07-24T15:18:02;22.00;99.90
60860;DHT22;46694;54.382;9.708;2023-07-24T15:20:41;22.00;99.90
60860;DHT22;46694;54.382;9.708;2023-07-24T15:23:20;22.10;99.90
60860;DHT22;46694;54.382;9.708;2023-07-24T15:25:59;22.00;99.90
60860;DHT22;46694;54.382;9.708;2023-07-24T15:28:39;22.00;99.90
60860;DHT22;46694;54.382;9.708;2023-07-24T15:31:19;21.90;99.90
60860;DHT22;46694;54.382;9.708;2023-07-24T15:33:58;21.80;99.90
60860;DHT22;46694;54.382;9.708;2023-07-24T15:36:37;21.80;99.90
60860;DHT22;46694;54.382;9.708;2023-07-24T15:39:17;21.80;99.90
60860;DHT22;46694;54.382;9.708;2023-07-24T15:41:56;21.80;99.90
60860;DHT22;46694;54.382;9.708;2023-07-24T15:44:35;21.90;99.90
60860;DHT22;46694;54.382;9.708;2023-07-24T15:47:14;21.90;99.90
60860;DHT22;46694;54.382;9.708;2023-07-24T15:49:53;21.80;99.90
60860;DHT22;46694;54.382;9.708;2023-07-24T15:52:33;21.90;99.90
60860;DHT22;46694;54.382;9.708;2023-07-24T15:55:12;21.90;99.90
60860;DHT22;46694;54.382;9.708;2023-07-24T15:57:51;21.80;99.90
60860;DHT22;46694;54.382;9.708;2023-07-24T16:00:30;21.70;99.90
60860;DHT22;46694;54.382;9.708;2023-07-24T16:03:10;21.60;99.90
60860;DHT22;46694;54.382;9.708;2023-07-24T16:05:49;21.60;99.90
60860;DHT22;46694;54.382;9.708;2023-07-24T16:08:28;21.70;99.90
60860;DHT22;46694;54.382;9.708;2023-07-24T16:11:07;21.60;99.90
60860;DHT22;46694;54.382;9.708;2023-07-24T16:13:47;21.50;99.90
60860;DHT22;46694;54.382;9.708;2023-07-24T16:16:26;21.40;99.90
60860;DHT22;46694;54.382;9.708;2023-07-24T16:21:54;21.40;99.90
60860;DHT22;46694;54.382;9.708;2023-07-24T16:24:34;21.40;99.90
60860;DHT22;46694;54.382;9.708;2023-07-24T16:27:14;21.30;99.90
60860;DHT22;46694;54.382;9.708;2023-07-24T16:29:54;21.40;99.90
60860;DHT22;46694;54.382;9.708;2023-07-24T16:32:33;21.40;99.90
60860;DHT22;46694;54.382;9.708;2023-07-24T16:37:57;21.40;99.90
60860;DHT22;46694;54.382;9.708;2023-07-24T16:40:37;21.40;99.90
60860;DHT22;46694;54.382;9.708;2023-07-24T16:43:16;21.40;99.90
60860;DHT22;46694;54.382;9.708;2023-07-24T16:45:55;21.40;99.90
60860;DHT22;46694;54.382;9.708;2023-07-24T16:48:34;21.30;99.90
60860;DHT22;46694;54.382;9.708;2023-07-24T16:51:14;21.30;99.90
60860;DHT22;46694;54.382;9.708;2023-07-24T16:53:54;21.30;99.90
60860;DHT22;46694;54.382;9.708;2023-07-24T16:56:33;21.10;99.90
60860;DHT22;46694;54.382;9.708;2023-07-24T16:59:12;21.00;99.90
60860;DHT22;46694;54.382;9.708;2023-07-24T17:01:51;20.90;99.90
60860;DHT22;46694;54.382;9.708;2023-07-24T17:04:31;20.80;99.90
60860;DHT22;46694;54.382;9.708;2023-07-24T17:07:10;20.80;99.90
60860;DHT22;46694;54.382;9.708;2023-07-24T17:10:00;20.70;99.90
60860;DHT22;46694;54.382;9.708;2023-07-24T17:12:39;20.70;99.90